DA13 weather

Tinfouchy Airport
Tindouf Province, Algeria

Public forecast

Using degrees Celsius for public forecast. Weather courtesy of forecast.io.

Closest aviation weather report (METAR) to Tinfouchy Airport

Closest report is Tindouf Airport, 142.7 nm (264.3 km) WSW. Retrieved 2019/10/21 06:00 UTC (39 minutes ago):

DAOF 210600Z 27006KT CAVOK 18/08 Q1011

Closest aviation forecast (TAF) to Tinfouchy Airport

Forecast is more than 12 hours old.

Closest forecast is Tindouf Airport, 142.7 nm (264.3 km) WSW. Retrieved 2017/11/09 18:03 UTC (2 years ago):

TAF DAOF 091700Z 0918/1009 32010KT 9999 SCT040 BKN100 PROB30 TEMPO 0918/0921 FEW033CB